sensor_id;sensor_type;location;lat;lon;timestamp;pressure;altitude;pressure_sealevel;temperature;humidity
36258;BME280;22294;52.044;4.582;2023-01-28T00:01:15;78978.63;;;-144.37;92.68
36258;BME280;22294;52.044;4.582;2023-01-28T00:03:41;78968.41;;;-144.37;92.34
36258;BME280;22294;52.044;4.582;2023-01-28T00:06:10;78966.34;;;-144.37;92.66
36258;BME280;22294;52.044;4.582;2023-01-28T00:08:36;78968.41;;;-144.37;92.90
36258;BME280;22294;52.044;4.582;2023-01-28T00:11:03;78962.25;;;-144.37;92.48
36258;BME280;22294;52.044;4.582;2023-01-28T00:13:30;78968.41;;;-144.37;92.52
36258;BME280;22294;52.044;4.582;2023-01-28T00:16:01;78949.97;;;-144.37;92.82
36258;BME280;22294;52.044;4.582;2023-01-28T00:18:29;78947.94;;;-144.37;92.84
36258;BME280;22294;52.044;4.582;2023-01-28T00:23:25;78943.84;;;-144.37;93.71
36258;BME280;22294;52.044;4.582;2023-01-28T00:25:51;78939.75;;;-144.37;93.71
36258;BME280;22294;52.044;4.582;2023-01-28T00:28:16;78945.88;;;-144.37;93.63
36258;BME280;22294;52.044;4.582;2023-01-28T00:30:41;78941.78;;;-144.37;93.65
36258;BME280;22294;52.044;4.582;2023-01-28T00:33:07;78952.03;;;-144.37;94.44
36258;BME280;22294;52.044;4.582;2023-01-28T00:35:32;78941.78;;;-144.37;94.30
36258;BME280;22294;52.044;4.582;2023-01-28T00:37:57;78943.84;;;-144.37;94.08
36258;BME280;22294;52.044;4.582;2023-01-28T00:40:24;78949.97;;;-144.37;93.88
36258;BME280;22294;52.044;4.582;2023-01-28T00:42:49;78943.84;;;-144.37;94.10
36258;BME280;22294;52.044;4.582;2023-01-28T00:45:15;78935.66;;;-144.37;93.96
36258;BME280;22294;52.044;4.582;2023-01-28T00:47:40;78943.84;;;-144.37;93.73
36258;BME280;22294;52.044;4.582;2023-01-28T00:50:06;78927.47;;;-144.37;93.46
36258;BME280;22294;52.044;4.582;2023-01-28T00:52:31;78929.50;;;-144.37;93.45
36258;BME280;22294;52.044;4.582;2023-01-28T00:54:57;78925.41;;;-144.37;93.43
36258;BME280;22294;52.044;4.582;2023-01-28T00:57:22;78917.25;;;-144.37;93.21
36258;BME280;22294;52.044;4.582;2023-01-28T00:59:47;78913.16;;;-144.37;92.95
36258;BME280;22294;52.044;4.582;2023-01-28T01:02:13;78919.28;;;-144.37;92.83
36258;BME280;22294;52.044;4.582;2023-01-28T01:04:39;78927.47;;;-144.37;92.68
36258;BME280;22294;52.044;4.582;2023-01-28T01:07:05;78935.66;;;-144.37;93.08
36258;BME280;22294;52.044;4.582;2023-01-28T01:09:30;78935.66;;;-144.37;92.54
36258;BME280;22294;52.044;4.582;2023-01-28T01:11:56;78945.88;;;-144.37;91.28
36258;BME280;22294;52.044;4.582;2023-01-28T01:14:21;78937.69;;;-144.37;91.73
36258;BME280;22294;52.044;4.582;2023-01-28T01:16:47;78929.50;;;-144.37;91.71
36258;BME280;22294;52.044;4.582;2023-01-28T01:19:13;78929.50;;;-144.37;91.95
36258;BME280;22294;52.044;4.582;2023-01-28T01:21:38;78925.41;;;-144.37;92.40
36258;BME280;22294;52.044;4.582;2023-01-28T01:24:04;78911.09;;;-144.37;92.40
36258;BME280;22294;52.044;4.582;2023-01-28T01:26:29;78892.69;;;-144.37;92.65
36258;BME280;22294;52.044;4.582;2023-01-28T01:28:55;78894.72;;;-144.37;93.51
36258;BME280;22294;52.044;4.582;2023-01-28T01:31:21;78898.81;;;-144.37;94.38
36258;BME280;22294;52.044;4.582;2023-01-28T01:33:48;78898.81;;;-144.37;94.97
36258;BME280;22294;52.044;4.582;2023-01-28T01:36:15;78896.78;;;-144.37;95.27
36258;BME280;22294;52.044;4.582;2023-01-28T01:38:42;78892.69;;;-144.37;95.08
36258;BME280;22294;52.044;4.582;2023-01-28T01:41:08;78898.81;;;-144.37;95.19
36258;BME280;22294;52.044;4.582;2023-01-28T01:43:52;78892.69;;;-144.37;94.71
36258;BME280;22294;52.044;4.582;2023-01-28T01:46:22;78884.50;;;-144.37;94.76
36258;BME280;22294;52.044;4.582;2023-01-28T01:48:49;78904.97;;;-144.37;95.47
36258;BME280;22294;52.044;4.582;2023-01-28T01:51:19;78904.97;;;-144.37;95.36
36258;BME280;22294;52.044;4.582;2023-01-28T01:53:50;78915.19;;;-144.37;95.44
36258;BME280;22294;52.044;4.582;2023-01-28T01:56:18;78925.41;;;-144.37;95.20
36258;BME280;22294;52.044;4.582;2023-01-28T01:58:46;78933.59;;;-144.37;95.72
36258;BME280;22294;52.044;4.582;2023-01-28T02:01:13;78919.28;;;-144.37;95.09
36258;BME280;22294;52.044;4.582;2023-01-28T02:04:02;78937.69;;;-144.37;94.79
36258;BME280;22294;52.044;4.582;2023-01-28T02:06:30;78945.88;;;-144.37;94.94
36258;BME280;22294;52.044;4.582;2023-01-28T02:08:56;78927.47;;;-144.37;94.18
36258;BME280;22294;52.044;4.582;2023-01-28T02:11:24;78939.75;;;-144.37;94.65
36258;BME280;22294;52.044;4.582;2023-01-28T02:13:53;78939.75;;;-144.37;95.29
36258;BME280;22294;52.044;4.582;2023-01-28T02:16:21;78958.16;;;-144.37;94.93
36258;BME280;22294;52.044;4.582;2023-01-28T02:18:46;78956.13;;;-144.37;95.67
36258;BME280;22294;52.044;4.582;2023-01-28T02:24:28;78962.25;;;-144.37;94.84
36258;BME280;22294;52.044;4.582;2023-01-28T02:27:10;78956.13;;;-144.37;94.40
36258;BME280;22294;52.044;4.582;2023-01-28T02:30:06;78962.25;;;-144.37;94.29
36258;BME280;22294;52.044;4.582;2023-01-28T02:38:00;78972.50;;;-144.37;93.68
36258;BME280;22294;52.044;4.582;2023-01-28T02:40:29;78966.34;;;-144.37;94.38
36258;BME280;22294;52.044;4.582;2023-01-28T02:42:58;78962.25;;;-144.37;94.26
36258;BME280;22294;52.044;4.582;2023-01-28T02:45:31;78966.34;;;-144.37;94.14
36258;BME280;22294;52.044;4.582;2023-01-28T02:48:19;78972.50;;;-144.37;94.14
36258;BME280;22294;52.044;4.582;2023-01-28T02:50:54;78968.41;;;-144.37;94.35
36258;BME280;22294;52.044;4.582;2023-01-28T02:53:44;78976.59;;;-144.37;93.61
36258;BME280;22294;52.044;4.582;2023-01-28T02:56:52;78968.41;;;-144.37;93.60
36258;BME280;22294;52.044;4.582;2023-01-28T02:59:32;78966.34;;;-144.37;92.16
36258;BME280;22294;52.044;4.582;2023-01-28T03:02:21;78984.78;;;-144.37;90.82
36258;BME280;22294;52.044;4.582;2023-01-28T03:07:38;78978.63;;;-144.37;90.29
36258;BME280;22294;52.044;4.582;2023-01-28T03:10:08;78984.78;;;-144.37;88.83
36258;BME280;22294;52.044;4.582;2023-01-28T03:12:36;79007.28;;;-144.37;88.55
36258;BME280;22294;52.044;4.582;2023-01-28T03:15:28;79003.19;;;-144.37;87.42
36258;BME280;22294;52.044;4.582;2023-01-28T03:18:18;79019.56;;;-144.37;87.28
36258;BME280;22294;52.044;4.582;2023-01-28T03:21:10;79007.28;;;-144.37;87.42
36258;BME280;22294;52.044;4.582;2023-01-28T03:23:58;78999.09;;;-144.37;87.46
36258;BME280;22294;52.044;4.582;2023-01-28T03:29:59;78992.97;;;-144.37;88.17
36258;BME280;22294;52.044;4.582;2023-01-28T03:32:45;78984.78;;;-144.37;88.41
36258;BME280;22294;52.044;4.582;2023-01-28T03:35:32;78982.72;;;-144.37;88.64
36258;BME280;22294;52.044;4.582;2023-01-28T03:38:19;78962.25;;;-144.37;88.86
36258;BME280;22294;52.044;4.582;2023-01-28T03:40:57;78968.41;;;-144.37;89.41
36258;BME280;22294;52.044;4.582;2023-01-28T03:43:24;78960.22;;;-144.37;89.42
36258;BME280;22294;52.044;4.582;2023-01-28T03:45:49;78970.44;;;-144.37;89.80
36258;BME280;22294;52.044;4.582;2023-01-28T03:48:18;78970.44;;;-144.37;89.95
36258;BME280;22294;52.044;4.582;2023-01-28T03:50:44;78964.31;;;-144.37;90.04
36258;BME280;22294;52.044;4.582;2023-01-28T03:53:10;78966.34;;;-144.37;90.17
36258;BME280;22294;52.044;4.582;2023-01-28T03:55:41;78980.69;;;-144.37;89.77
36258;BME280;22294;52.044;4.582;2023-01-28T03:58:07;78972.50;;;-144.37;89.33
36258;BME280;22294;52.044;4.582;2023-01-28T04:00:32;78980.69;;;-144.37;88.51
36258;BME280;22294;52.044;4.582;2023-01-28T04:02:58;79017.53;;;-144.37;87.61
36258;BME280;22294;52.044;4.582;2023-01-28T04:05:24;78999.09;;;-144.37;86.56
36258;BME280;22294;52.044;4.582;2023-01-28T04:07:53;78997.06;;;-144.37;86.40
36258;BME280;22294;52.044;4.582;2023-01-28T04:10:18;78992.97;;;-144.37;86.89
36258;BME280;22294;52.044;4.582;2023-01-28T04:12:44;78990.91;;;-144.37;86.77
36258;BME280;22294;52.044;4.582;2023-01-28T04:15:10;78995.00;;;-144.37;86.94
36258;BME280;22294;52.044;4.582;2023-01-28T04:17:45;79007.28;;;-144.37;87.04
36258;BME280;22294;52.044;4.582;2023-01-28T04:20:12;78988.88;;;-144.37;87.28
36258;BME280;22294;52.044;4.582;2023-01-28T04:22:38;78980.69;;;-144.37;87.30
36258;BME280;22294;52.044;4.582;2023-01-28T04:25:03;78976.59;;;-144.37;87.22
36258;BME280;22294;52.044;4.582;2023-01-28T04:27:29;78964.31;;;-144.37;86.50
36258;BME280;22294;52.044;4.582;2023-01-28T04:29:54;78988.88;;;-144.37;86.72
36258;BME280;22294;52.044;4.582;2023-01-28T04:32:19;78980.69;;;-144.37;86.95
36258;BME280;22294;52.044;4.582;2023-01-28T04:34:45;78976.59;;;-144.37;87.16
36258;BME280;22294;52.044;4.582;2023-01-28T04:37:10;78986.81;;;-144.37;87.10
36258;BME280;22294;52.044;4.582;2023-01-28T04:39:35;78982.72;;;-144.37;87.10
36258;BME280;22294;52.044;4.582;2023-01-28T04:42:00;78980.69;;;-144.37;87.19
36258;BME280;22294;52.044;4.582;2023-01-28T04:44:26;78968.41;;;-144.37;87.99
36258;BME280;22294;52.044;4.582;2023-01-28T04:46:51;78978.63;;;-144.37;88.52
36258;BME280;22294;52.044;4.582;2023-01-28T04:49:16;78974.53;;;-144.37;87.93
36258;BME280;22294;52.044;4.582;2023-01-28T04:51:42;78972.50;;;-144.37;88.69
36258;BME280;22294;52.044;4.582;2023-01-28T04:54:07;78980.69;;;-144.37;88.74
36258;BME280;22294;52.044;4.582;2023-01-28T04:56:32;78970.44;;;-144.37;88.60
36258;BME280;22294;52.044;4.582;2023-01-28T04:58:58;78968.41;;;-144.37;88.29
36258;BME280;22294;52.044;4.582;2023-01-28T05:01:23;79005.25;;;-144.37;85.44
36258;BME280;22294;52.044;4.582;2023-01-28T05:03:49;79011.38;;;-144.37;83.53
36258;BME280;22294;52.044;4.582;2023-01-28T05:06:14;79011.38;;;-144.37;83.35
36258;BME280;22294;52.044;4.582;2023-01-28T05:08:40;79017.53;;;-144.37;82.36
36258;BME280;22294;52.044;4.582;2023-01-28T05:11:05;79005.25;;;-144.37;82.03
36258;BME280;22294;52.044;4.582;2023-01-28T05:13:31;79023.66;;;-144.37;82.21
36258;BME280;22294;52.044;4.582;2023-01-28T05:15:56;79021.63;;;-144.37;82.05
36258;BME280;22294;52.044;4.582;2023-01-28T05:18:21;79015.47;;;-144.37;81.67
36258;BME280;22294;52.044;4.582;2023-01-28T05:20:47;79031.84;;;-144.37;81.81
36258;BME280;22294;52.044;4.582;2023-01-28T05:23:12;79005.25;;;-144.37;82.56
36258;BME280;22294;52.044;4.582;2023-01-28T05:25:37;79001.16;;;-144.37;82.98
36258;BME280;22294;52.044;4.582;2023-01-28T05:28:03;78997.06;;;-144.37;82.87
36258;BME280;22294;52.044;4.582;2023-01-28T05:30:28;79001.16;;;-144.37;82.80
36258;BME280;22294;52.044;4.582;2023-01-28T05:32:54;79005.25;;;-144.37;83.22
36258;BME280;22294;52.044;4.582;2023-01-28T05:35:20;79001.16;;;-144.37;83.40
36258;BME280;22294;52.044;4.582;2023-01-28T05:37:46;78999.09;;;-144.37;83.67
36258;BME280;22294;52.044;4.582;2023-01-28T05:40:11;79003.19;;;-144.37;84.06
36258;BME280;22294;52.044;4.582;2023-01-28T05:42:37;79005.25;;;-144.37;83.91
36258;BME280;22294;52.044;4.582;2023-01-28T05:45:02;79013.44;;;-144.37;83.71
36258;BME280;22294;52.044;4.582;2023-01-28T05:47:28;79021.63;;;-144.37;83.34
36258;BME280;22294;52.044;4.582;2023-01-28T05:49:54;79017.53;;;-144.37;82.92
36258;BME280;22294;52.044;4.582;2023-01-28T05:52:20;79007.28;;;-144.37;82.94
36258;BME280;22294;52.044;4.582;2023-01-28T05:54:45;79005.25;;;-144.37;83.30
36258;BME280;22294;52.044;4.582;2023-01-28T05:57:10;78997.06;;;-144.37;83.55
36258;BME280;22294;52.044;4.582;2023-01-28T05:59:36;78999.09;;;-144.37;82.48
36258;BME280;22294;52.044;4.582;2023-01-28T06:02:01;79017.53;;;-144.37;82.88
36258;BME280;22294;52.044;4.582;2023-01-28T06:04:26;79015.47;;;-144.37;83.39
36258;BME280;22294;52.044;4.582;2023-01-28T06:06:52;79003.19;;;-144.37;84.09
36258;BME280;22294;52.044;4.582;2023-01-28T06:09:17;79005.25;;;-144.37;83.26
36258;BME280;22294;52.044;4.582;2023-01-28T06:11:42;79011.38;;;-144.37;83.06
36258;BME280;22294;52.044;4.582;2023-01-28T06:14:09;79013.44;;;-144.37;83.40
36258;BME280;22294;52.044;4.582;2023-01-28T06:16:34;79033.91;;;-144.37;82.32
36258;BME280;22294;52.044;4.582;2023-01-28T06:18:59;79009.34;;;-144.37;81.71
36258;BME280;22294;52.044;4.582;2023-01-28T06:21:25;79017.53;;;-144.37;80.83
36258;BME280;22294;52.044;4.582;2023-01-28T06:23:50;79003.19;;;-144.37;80.77
36258;BME280;22294;52.044;4.582;2023-01-28T06:26:15;79019.56;;;-144.37;80.30
36258;BME280;22294;52.044;4.582;2023-01-28T06:28:41;79042.06;;;-144.37;80.95
36258;BME280;22294;52.044;4.582;2023-01-28T06:31:06;79044.13;;;-144.37;81.35
36258;BME280;22294;52.044;4.582;2023-01-28T06:33:32;79031.84;;;-144.37;81.89
36258;BME280;22294;52.044;4.582;2023-01-28T06:35:57;79015.47;;;-144.37;82.49
36258;BME280;22294;52.044;4.582;2023-01-28T06:38:22;79011.38;;;-144.37;82.55
36258;BME280;22294;52.044;4.582;2023-01-28T06:40:52;79005.25;;;-144.37;81.93
36258;BME280;22294;52.044;4.582;2023-01-28T06:43:19;79013.44;;;-144.37;81.59
36258;BME280;22294;52.044;4.582;2023-01-28T06:45:45;79017.53;;;-144.37;81.43
36258;BME280;22294;52.044;4.582;2023-01-28T06:48:10;79017.53;;;-144.37;81.64
36258;BME280;22294;52.044;4.582;2023-01-28T06:50:36;79013.44;;;-144.37;82.11
36258;BME280;22294;52.044;4.582;2023-01-28T06:53:01;79017.53;;;-144.37;81.86
36258;BME280;22294;52.044;4.582;2023-01-28T06:55:26;79005.25;;;-144.37;82.40
36258;BME280;22294;52.044;4.582;2023-01-28T06:57:51;79001.16;;;-144.37;83.02
36258;BME280;22294;52.044;4.582;2023-01-28T07:00:17;78997.06;;;-144.37;83.10
36258;BME280;22294;52.044;4.582;2023-01-28T07:02:42;78992.97;;;-144.37;83.25
36258;BME280;22294;52.044;4.582;2023-01-28T07:05:08;79001.16;;;-144.37;83.08
36258;BME280;22294;52.044;4.582;2023-01-28T07:07:33;79017.53;;;-144.37;82.64
36258;BME280;22294;52.044;4.582;2023-01-28T07:09:59;79035.94;;;-144.37;83.61
36258;BME280;22294;52.044;4.582;2023-01-28T07:12:24;79025.72;;;-144.37;84.32
36258;BME280;22294;52.044;4.582;2023-01-28T07:14:49;79035.94;;;-144.37;84.70
36258;BME280;22294;52.044;4.582;2023-01-28T07:17:14;79035.94;;;-144.37;85.31
36258;BME280;22294;52.044;4.582;2023-01-28T07:19:40;79025.72;;;-144.37;85.55
36258;BME280;22294;52.044;4.582;2023-01-28T07:22:05;79031.84;;;-144.37;84.90
36258;BME280;22294;52.044;4.582;2023-01-28T07:24:31;79042.06;;;-144.37;84.26
36258;BME280;22294;52.044;4.582;2023-01-28T07:26:57;79040.03;;;-144.37;84.21
36258;BME280;22294;52.044;4.582;2023-01-28T07:29:22;79046.16;;;-144.37;83.70
36258;BME280;22294;52.044;4.582;2023-01-28T07:31:47;79048.22;;;-144.37;84.05
36258;BME280;22294;52.044;4.582;2023-01-28T07:34:13;79031.84;;;-144.37;84.37
36258;BME280;22294;52.044;4.582;2023-01-28T07:36:38;79042.06;;;-144.37;84.57
36258;BME280;22294;52.044;4.582;2023-01-28T07:39:03;79050.25;;;-144.37;84.57
36258;BME280;22294;52.044;4.582;2023-01-28T07:41:29;79040.03;;;-144.37;84.62
36258;BME280;22294;52.044;4.582;2023-01-28T07:43:54;79046.16;;;-144.37;84.76
36258;BME280;22294;52.044;4.582;2023-01-28T07:46:20;79042.06;;;-144.37;84.82
36258;BME280;22294;52.044;4.582;2023-01-28T07:48:46;79048.22;;;-144.37;84.87
36258;BME280;22294;52.044;4.582;2023-01-28T07:51:12;79046.16;;;-144.37;85.22
36258;BME280;22294;52.044;4.582;2023-01-28T07:53:38;79050.25;;;-144.37;85.32
36258;BME280;22294;52.044;4.582;2023-01-28T07:56:03;79046.16;;;-144.37;85.64
36258;BME280;22294;52.044;4.582;2023-01-28T07:58:30;79042.06;;;-144.37;86.02
36258;BME280;22294;52.044;4.582;2023-01-28T08:00:58;79048.22;;;-144.37;85.88
36258;BME280;22294;52.044;4.582;2023-01-28T08:03:24;79050.25;;;-144.37;85.71
36258;BME280;22294;52.044;4.582;2023-01-28T08:05:51;79052.31;;;-144.37;85.73
36258;BME280;22294;52.044;4.582;2023-01-28T08:08:17;79056.41;;;-144.37;85.37
36258;BME280;22294;52.044;4.582;2023-01-28T08:10:43;79056.41;;;-144.37;85.19
36258;BME280;22294;52.044;4.582;2023-01-28T08:13:10;79050.25;;;-144.37;85.10
36258;BME280;22294;52.044;4.582;2023-01-28T08:15:35;79058.44;;;-144.37;84.86
36258;BME280;22294;52.044;4.582;2023-01-28T08:18:02;79044.13;;;-144.37;84.89
36258;BME280;22294;52.044;4.582;2023-01-28T08:20:28;79046.16;;;-144.37;84.92
36258;BME280;22294;52.044;4.582;2023-01-28T08:23:03;79033.91;;;-144.37;84.26
36258;BME280;22294;52.044;4.582;2023-01-28T08:25:29;79042.06;;;-144.37;83.91
36258;BME280;22294;52.044;4.582;2023-01-28T08:27:54;79035.94;;;-144.37;83.56
36258;BME280;22294;52.044;4.582;2023-01-28T08:30:19;79037.97;;;-144.37;82.70
36258;BME280;22294;52.044;4.582;2023-01-28T08:32:46;79042.06;;;-144.37;82.92
36258;BME280;22294;52.044;4.582;2023-01-28T08:35:11;79076.88;;;-144.37;83.05
36258;BME280;22294;52.044;4.582;2023-01-28T08:37:37;79078.91;;;-144.37;83.31
36258;BME280;22294;52.044;4.582;2023-01-28T08:40:02;79072.78;;;-144.37;83.90
36258;BME280;22294;52.044;4.582;2023-01-28T08:42:28;79058.44;;;-144.37;83.46
36258;BME280;22294;52.044;4.582;2023-01-28T08:44:53;79058.44;;;-144.37;83.00
36258;BME280;22294;52.044;4.582;2023-01-28T08:47:18;79054.34;;;-144.37;83.56
36258;BME280;22294;52.044;4.582;2023-01-28T08:49:44;79058.44;;;-144.37;83.32
36258;BME280;22294;52.044;4.582;2023-01-28T08:52:09;79052.31;;;-144.37;82.90
36258;BME280;22294;52.044;4.582;2023-01-28T08:54:35;79058.44;;;-144.37;82.52
36258;BME280;22294;52.044;4.582;2023-01-28T08:57:00;79048.22;;;-144.37;81.47
36258;BME280;22294;52.044;4.582;2023-01-28T08:59:26;79050.25;;;-144.37;80.87
36258;BME280;22294;52.044;4.582;2023-01-28T09:01:51;79027.75;;;-144.37;81.47
36258;BME280;22294;52.044;4.582;2023-01-28T09:04:16;79025.72;;;-144.37;81.06
36258;BME280;22294;52.044;4.582;2023-01-28T09:06:42;79013.44;;;-144.37;81.11
36258;BME280;22294;52.044;4.582;2023-01-28T09:09:07;78997.06;;;-144.37;80.76
36258;BME280;22294;52.044;4.582;2023-01-28T09:11:32;78968.41;;;-144.37;79.68
36258;BME280;22294;52.044;4.582;2023-01-28T09:13:58;78935.66;;;-144.37;78.42
36258;BME280;22294;52.044;4.582;2023-01-28T09:16:23;78907.00;;;-144.37;76.12
36258;BME280;22294;52.044;4.582;2023-01-28T09:18:49;78888.59;;;-144.37;75.45
36258;BME280;22294;52.044;4.582;2023-01-28T09:21:16;78882.44;;;-144.37;74.65
36258;BME280;22294;52.044;4.582;2023-01-28T09:23:41;78902.91;;;-144.37;74.23
36258;BME280;22294;52.044;4.582;2023-01-28T09:26:06;78919.28;;;-144.37;74.79
36258;BME280;22294;52.044;4.582;2023-01-28T09:28:33;78947.94;;;-144.37;74.32
36258;BME280;22294;52.044;4.582;2023-01-28T09:31:08;78966.34;;;-144.37;74.40
36258;BME280;22294;52.044;4.582;2023-01-28T09:33:35;78974.53;;;-144.37;75.28
36258;BME280;22294;52.044;4.582;2023-01-28T09:36:02;78964.31;;;-144.37;76.33
36258;BME280;22294;52.044;4.582;2023-01-28T09:38:29;78964.31;;;-144.37;76.22
36258;BME280;22294;52.044;4.582;2023-01-28T09:40:55;78970.44;;;-144.37;76.72
36258;BME280;22294;52.044;4.582;2023-01-28T09:45:52;78943.84;;;-144.37;76.08
36258;BME280;22294;52.044;4.582;2023-01-28T09:48:22;78939.75;;;-144.37;75.74
36258;BME280;22294;52.044;4.582;2023-01-28T09:50:53;78943.84;;;-144.37;75.95
36258;BME280;22294;52.044;4.582;2023-01-28T09:53:30;78947.94;;;-144.37;75.02
36258;BME280;22294;52.044;4.582;2023-01-28T09:56:04;78947.94;;;-144.37;75.21
36258;BME280;22294;52.044;4.582;2023-01-28T09:58:31;78947.94;;;-144.37;74.85
36258;BME280;22294;52.044;4.582;2023-01-28T10:14:27;78972.50;;;-144.37;73.66
36258;BME280;22294;52.044;4.582;2023-01-28T10:17:07;78970.44;;;-144.37;73.46
36258;BME280;22294;52.044;4.582;2023-01-28T10:19:41;78945.88;;;-144.37;72.95
36258;BME280;22294;52.044;4.582;2023-01-28T10:22:27;78939.75;;;-144.37;73.55
36258;BME280;22294;52.044;4.582;2023-01-28T10:25:02;78929.50;;;-144.37;74.02
36258;BME280;22294;52.044;4.582;2023-01-28T10:27:31;78921.31;;;-144.37;73.13
36258;BME280;22294;52.044;4.582;2023-01-28T10:29:59;78913.16;;;-144.37;73.73
36258;BME280;22294;52.044;4.582;2023-01-28T10:32:32;78913.16;;;-144.37;72.22
36258;BME280;22294;52.044;4.582;2023-01-28T10:34:58;78898.81;;;-144.37;72.18
36258;BME280;22294;52.044;4.582;2023-01-28T10:37:32;78890.63;;;-144.37;72.16
36258;BME280;22294;52.044;4.582;2023-01-28T10:39:59;78896.78;;;-144.37;71.36
36258;BME280;22294;52.044;4.582;2023-01-28T10:42:33;78902.91;;;-144.37;71.60
36258;BME280;22294;52.044;4.582;2023-01-28T10:45:13;78896.78;;;-144.37;71.02
36258;BME280;22294;52.044;4.582;2023-01-28T10:48:00;78907.00;;;-144.37;70.63
36258;BME280;22294;52.044;4.582;2023-01-28T10:50:28;78919.28;;;-144.37;70.53
36258;BME280;22294;52.044;4.582;2023-01-28T10:52:58;78927.47;;;-144.37;70.87
36258;BME280;22294;52.044;4.582;2023-01-28T10:55:26;78909.06;;;-144.37;70.92
36258;BME280;22294;52.044;4.582;2023-01-28T10:57:53;78894.72;;;-144.37;71.28
36258;BME280;22294;52.044;4.582;2023-01-28T11:02:47;78864.03;;;-144.37;70.78
36258;BME280;22294;52.044;4.582;2023-01-28T11:05:21;78861.97;;;-144.37;71.94
36258;BME280;22294;52.044;4.582;2023-01-28T11:07:49;78837.41;;;-144.37;73.04
36258;BME280;22294;52.044;4.582;2023-01-28T11:10:33;78825.16;;;-144.37;73.88
36258;BME280;22294;52.044;4.582;2023-01-28T11:13:00;78808.78;;;-144.37;73.71
36258;BME280;22294;52.044;4.582;2023-01-28T11:15:26;78806.72;;;-144.37;73.40
36258;BME280;22294;52.044;4.582;2023-01-28T11:18:05;78808.78;;;-144.37;72.86
36258;BME280;22294;52.044;4.582;2023-01-28T11:20:41;78780.13;;;-144.37;73.36
36258;BME280;22294;52.044;4.582;2023-01-28T11:23:23;78782.16;;;-144.37;72.16
36258;BME280;22294;52.044;4.582;2023-01-28T11:25:59;78780.13;;;-144.37;72.31
36258;BME280;22294;52.044;4.582;2023-01-28T11:28:25;78780.13;;;-144.37;72.89
36258;BME280;22294;52.044;4.582;2023-01-28T11:30:52;78767.84;;;-144.37;72.59
36258;BME280;22294;52.044;4.582;2023-01-28T11:33:24;78755.56;;;-144.37;72.01
36258;BME280;22294;52.044;4.582;2023-01-28T11:35:56;78745.34;;;-144.37;71.98
36258;BME280;22294;52.044;4.582;2023-01-28T11:38:24;78755.56;;;-144.37;72.13
36258;BME280;22294;52.044;4.582;2023-01-28T11:40:56;78759.66;;;-144.37;72.10
36258;BME280;22294;52.044;4.582;2023-01-28T11:43:27;78757.59;;;-144.37;71.54
36258;BME280;22294;52.044;4.582;2023-01-28T11:46:14;78735.09;;;-144.37;71.25
36258;BME280;22294;52.044;4.582;2023-01-28T11:51:29;78745.34;;;-144.37;70.78
36258;BME280;22294;52.044;4.582;2023-01-28T12:03:15;78751.47;;;-144.37;70.41
36258;BME280;22294;52.044;4.582;2023-01-28T12:08:41;78757.59;;;-144.37;70.01
36258;BME280;22294;52.044;4.582;2023-01-28T12:19:48;78771.94;;;-144.37;69.68
36258;BME280;22294;52.044;4.582;2023-01-28T12:28:07;78739.19;;;-144.37;70.07
36258;BME280;22294;52.044;4.582;2023-01-28T12:30:51;78739.19;;;-144.37;69.35
36258;BME280;22294;52.044;4.582;2023-01-28T12:41:30;78698.25;;;-144.37;68.89
36258;BME280;22294;52.044;4.582;2023-01-28T12:44:05;78688.03;;;-144.37;68.68
36258;BME280;22294;52.044;4.582;2023-01-28T12:46:56;78685.97;;;-144.37;68.37
36258;BME280;22294;52.044;4.582;2023-01-28T12:52:06;78655.28;;;-144.37;70.18
36258;BME280;22294;52.044;4.582;2023-01-28T12:54:39;78622.53;;;-144.37;70.34
36258;BME280;22294;52.044;4.582;2023-01-28T12:57:13;78602.06;;;-144.37;69.82
36258;BME280;22294;52.044;4.582;2023-01-28T13:02:55;78583.66;;;-144.37;69.74
36258;BME280;22294;52.044;4.582;2023-01-28T13:05:30;78569.34;;;-144.37;69.90
36258;BME280;22294;52.044;4.582;2023-01-28T13:08:04;78563.19;;;-144.37;69.00
36258;BME280;22294;52.044;4.582;2023-01-28T13:10:44;78569.34;;;-144.37;67.11
36258;BME280;22294;52.044;4.582;2023-01-28T13:13:32;78565.25;;;-144.37;67.19
36258;BME280;22294;52.044;4.582;2023-01-28T13:15:59;78548.88;;;-144.37;67.39
36258;BME280;22294;52.044;4.582;2023-01-28T13:31:41;78548.88;;;-144.37;67.37
36258;BME280;22294;52.044;4.582;2023-01-28T13:34:24;78550.91;;;-144.37;68.02
36258;BME280;22294;52.044;4.582;2023-01-28T13:36:50;78546.81;;;-144.37;67.88
36258;BME280;22294;52.044;4.582;2023-01-28T13:39:18;78552.97;;;-144.37;67.05
36258;BME280;22294;52.044;4.582;2023-01-28T13:44:32;78575.47;;;-144.37;67.22
36258;BME280;22294;52.044;4.582;2023-01-28T13:49:46;78583.66;;;-144.37;67.12
36258;BME280;22294;52.044;4.582;2023-01-28T13:52:22;78581.63;;;-144.37;67.58
36258;BME280;22294;52.044;4.582;2023-01-28T13:55:00;78571.38;;;-144.37;66.69
36258;BME280;22294;52.044;4.582;2023-01-28T14:03:19;78573.44;;;-144.37;66.30
36258;BME280;22294;52.044;4.582;2023-01-28T14:19:11;78585.72;;;-144.37;65.69
36258;BME280;22294;52.044;4.582;2023-01-28T14:21:38;78583.66;;;-144.37;65.82
36258;BME280;22294;52.044;4.582;2023-01-28T14:24:04;78583.66;;;-144.37;66.10
36258;BME280;22294;52.044;4.582;2023-01-28T14:26:49;78595.94;;;-144.37;65.48
36258;BME280;22294;52.044;4.582;2023-01-28T14:29:23;78585.72;;;-144.37;65.39
36258;BME280;22294;52.044;4.582;2023-01-28T14:31:51;78585.72;;;-144.37;65.64
36258;BME280;22294;52.044;4.582;2023-01-28T14:34:32;78575.47;;;-144.37;65.26
36258;BME280;22294;52.044;4.582;2023-01-28T14:37:07;78573.44;;;-144.37;65.69
36258;BME280;22294;52.044;4.582;2023-01-28T14:42:23;78589.81;;;-144.37;65.76
36258;BME280;22294;52.044;4.582;2023-01-28T14:48:18;78600.03;;;-144.37;64.84
36258;BME280;22294;52.044;4.582;2023-01-28T14:56:40;78579.56;;;-144.37;64.39
36258;BME280;22294;52.044;4.582;2023-01-28T14:59:22;78581.63;;;-144.37;64.29